Estación Meteorológica Peña el Pijo (Robertgarden) [ 02/17/19 02:03:10 CET ]

Fecha Hora Presion(HPa) Temp (°C) Humedad % Rocio (°C) Viento ( m/s) Direccion Lluvia 1Hora(mm) Lluvia 24H(mm) LLuvia Total(mm)
2018-Dec-19 01:01:57 1010.900 8.8 62 1.9         160.58
2018-Dec-19 02:03:12 1010.300 8.3 63 1.7         160.58
2018-Dec-19 03:01:58 1009.900 8.9 59 1.3         160.58
2018-Dec-19 04:01:49 1010.400 7.3 61 0.3         160.58
2018-Dec-19 05:01:44 1010.000 5.8 66 -0.1         160.58
2018-Dec-19 06:01:48 1010.600 7.4 69 2.1         160.58
2018-Dec-19 07:01:39 1010.700 9.4 65 3.1         160.58
2018-Dec-19 08:01:44 1010.800 8.3 71 3.4         160.58
2018-Dec-19 09:01:44 1011.200 8.1 74 3.8         160.58
2018-Dec-19 10:01:55 1011.700 9.9 75 5.6         160.58
2018-Dec-19 11:02:05 1012.500 11.4 73 6.7         160.58
2018-Dec-19 12:01:42 1012.300 11.6 74 7.1         160.58
2018-Dec-19 13:01:51 1011.800 12.9 61 5.5         160.58
2018-Dec-19 14:01:46 1011.300 12.8 56 4.2 1.3 NNW     160.58
2018-Dec-19 15:01:46 1011.400 12.9 52 3.2         160.58
2018-Dec-19 16:01:35 1011.900 12.2 49 1.8         160.58
2018-Dec-19 17:01:58 1011.800 9.5 56 1.1         160.58
2018-Dec-19 18:01:39 1012.100 7.9 58 0.1         160.58
2018-Dec-19 19:01:42 1012.400 6.5 63 -0.1         160.58
2018-Dec-19 20:01:53 1013.000 5.8 68 0.4         160.58
2018-Dec-19 21:01:33 1012.800 5.8 69 0.6         160.58
2018-Dec-19 22:01:44 1012.700 5.6 67 -0.1         160.58
2018-Dec-19 23:01:51 1013.100 4.9 65 -1.1         160.58

Temperatura Máxima:12°    Temperatura Mínima:
Presión Máxima:1013.100 Hpa    Presión Mínima:1009.900 Hpa


Volver